Time;durP1;ratioP1;P1;durP2;ratioP2;P2;SDS_P1;SDS_P2;PMS_P1;PMS_P2;Temp;Humidity;BMP_temperature;BMP_pressure;BME280_temperature;BME280_humidity;BME280_pressure;Samples;Min_cycle;Max_cycle;Signal;HPM_P1;HPM_P2
2021/08/03 22:14:39;;;;;;;;;3.75;3.75;;;;;;;;3545636;39;1471255;-75
2021/08/03 22:17:06;;;;;;;;;3.25;3.00;;;;;;;;3575895;39;113855;-74
2021/08/03 22:19:33;;;;;;;;;4.00;2.00;;;;;;;;3576796;39;111967;-74
2021/08/03 22:21:59;;;;;;;;;3.50;2.00;;;;;;;;3576777;39;113389;-74
2021/08/03 22:24:26;;;;;;;;;2.00;2.00;;;;;;;;3574795;39;112948;-74
2021/08/03 22:26:52;;;;;;;;;2.00;2.00;;;;;;;;3577178;39;112034;-74
2021/08/03 22:29:19;;;;;;;;;3.67;2.67;;;;;;;;3575868;39;112671;-74
2021/08/03 22:31:47;;;;;;;;;3.00;3.00;;;;;;;;3577032;39;113651;-74
2021/08/03 22:34:13;;;;;;;;;3.00;2.00;;;;;;;;3577235;39;112082;-74
2021/08/03 22:36:40;;;;;;;;;1.00;1.00;;;;;;;;3574788;39;113004;-74
2021/08/03 22:39:07;;;;;;;;;5.00;5.00;;;;;;;;3576113;39;111714;-74
2021/08/03 22:41:34;;;;;;;;;4.67;4.67;;;;;;;;3578035;39;113866;-74
2021/08/03 22:44:00;;;;;;;;;5.67;4.67;;;;;;;;3576152;39;113993;-75
2021/08/03 22:46:27;;;;;;;;;6.67;5.00;;;;;;;;3577028;39;111966;-74
2021/08/03 22:48:55;;;;;;;;;5.00;5.00;;;;;;;;3576099;39;113437;-75
2021/08/03 22:51:23;;;;;;;;;3.67;3.67;;;;;;;;3577092;39;113786;-75
2021/08/03 22:53:50;;;;;;;;;5.67;4.33;;;;;;;;3573841;39;111961;-73
2021/08/03 22:56:16;;;;;;;;;5.67;5.00;;;;;;;;3577974;39;113586;-73
2021/08/03 22:58:43;;;;;;;;;4.67;4.67;;;;;;;;3575857;39;111893;-73
2021/08/03 23:01:09;;;;;;;;;5.67;4.00;;;;;;;;3577119;39;113278;-74
2021/08/03 23:03:36;;;;;;;;;4.00;3.67;;;;;;;;3575926;39;113866;-74
2021/08/03 23:06:04;;;;;;;;;5.67;4.00;;;;;;;;3576694;39;111866;-74
2021/08/03 23:08:30;;;;;;;;;4.00;4.00;;;;;;;;3576587;39;113251;-74
2021/08/03 23:10:57;;;;;;;;;4.67;4.00;;;;;;;;3575902;39;113991;-75
2021/08/03 23:13:23;;;;;;;;;7.00;4.00;;;;;;;;3576852;39;112319;-74
2021/08/03 23:15:50;;;;;;;;;4.00;4.00;;;;;;;;3575717;39;114254;-74
2021/08/03 23:18:17;;;;;;;;;5.00;5.00;;;;;;;;3579738;39;113934;-75
2021/08/03 23:20:43;;;;;;;;;4.00;4.00;;;;;;;;3575949;39;113189;-74
2021/08/03 23:23:11;;;;;;;;;3.00;3.00;;;;;;;;3576794;39;113884;-75
2021/08/03 23:25:38;;;;;;;;;3.00;3.00;;;;;;;;3570682;39;111919;-74
2021/08/03 23:28:04;;;;;;;;;5.33;3.67;;;;;;;;3570114;39;113334;-74
2021/08/03 23:30:31;;;;;;;;;3.00;3.00;;;;;;;;3569430;39;114519;-74
2021/08/03 23:32:58;;;;;;;;;3.00;3.00;;;;;;;;3568588;39;111882;-73
2021/08/03 23:35:24;;;;;;;;;4.67;3.67;;;;;;;;3570099;39;113329;-73
2021/08/03 23:37:52;;;;;;;;;3.00;3.00;;;;;;;;3565016;39;112866;-74
2021/08/03 23:40:20;;;;;;;;;4.00;3.00;;;;;;;;3573331;39;112818;-74
2021/08/03 23:42:46;;;;;;;;;3.67;3.67;;;;;;;;3568422;39;113459;-74
2021/08/03 23:45:13;;;;;;;;;3.33;3.33;;;;;;;;3570434;39;112196;-74
2021/08/03 23:47:39;;;;;;;;;4.00;3.00;;;;;;;;3569258;39;113526;-75
2021/08/03 23:50:07;;;;;;;;;5.67;4.00;;;;;;;;3569412;39;114341;-75
2021/08/03 23:52:33;;;;;;;;;4.00;3.00;;;;;;;;3569671;39;111849;-75
2021/08/03 23:55:00;;;;;;;;;3.33;3.00;;;;;;;;3569449;39;113146;-75
2021/08/03 23:57:28;;;;;;;;;4.67;3.00;;;;;;;;3569532;39;114254;-73
2021/08/03 23:59:54;;;;;;;;;2.00;2.00;;;;;;;;3569220;39;111880;-73
